createdAt,value
2022-11-24T00:00:46.251Z,97267.50
2022-11-24T00:03:53.583Z,97273.59
2022-11-24T00:06:56.558Z,97275.09
2022-11-24T00:09:58.029Z,97282.00
2022-11-24T00:12:59.583Z,97279.38
2022-11-24T00:16:04.839Z,97278.50
2022-11-24T00:19:07.474Z,97287.38
2022-11-24T00:22:10.351Z,97287.38
2022-11-24T00:25:11.967Z,97284.66
2022-11-24T00:28:13.425Z,97283.72
2022-11-24T00:31:17.455Z,97290.75
2022-11-24T00:34:19.172Z,97287.22
2022-11-24T00:37:22.285Z,97293.53
2022-11-24T00:40:23.796Z,97296.09
2022-11-24T00:43:25.277Z,97296.81
2022-11-24T00:46:27.836Z,97295.91
2022-11-24T00:49:29.590Z,97297.38
2022-11-24T00:52:32.475Z,97301.69
2022-11-24T00:55:33.985Z,97304.09
2022-11-24T00:58:35.569Z,97312.91
2022-11-24T01:01:37.133Z,97307.59
2022-11-24T01:04:38.837Z,97310.16
2022-11-24T01:07:41.864Z,97313.69
2022-11-24T01:10:43.404Z,97309.16
2022-11-24T01:13:46.159Z,97316.13
2022-11-24T01:16:47.759Z,97316.97
2022-11-24T01:19:49.271Z,97313.22
2022-11-24T01:22:52.306Z,97323.53
2022-11-24T01:25:53.812Z,97318.88
2022-11-24T01:28:56.128Z,97324.50
2022-11-24T01:31:57.674Z,97334.16
2022-11-24T01:34:59.312Z,97331.38
2022-11-24T01:38:02.228Z,97331.09
2022-11-24T01:41:04.518Z,97335.38
2022-11-24T01:44:23.016Z,97334.38
2022-11-24T01:47:31.064Z,97336.09
2022-11-24T01:50:33.899Z,97327.22
2022-11-24T01:53:37.233Z,97328.16
2022-11-24T01:56:40.841Z,97336.09
2022-11-24T01:59:42.651Z,97343.19
2022-11-24T02:02:44.657Z,97339.69
2022-11-24T02:05:50.443Z,97344.03
2022-11-24T02:08:57.322Z,97345.75
2022-11-24T02:11:59.874Z,97348.41
2022-11-24T02:15:04.866Z,97346.69
2022-11-24T02:18:06.813Z,97356.44
2022-11-24T02:21:08.559Z,97361.78
2022-11-24T02:24:17.145Z,97358.44
2022-11-24T02:27:20.179Z,97372.59
2022-11-24T02:30:22.310Z,97377.91
2022-11-24T02:33:25.400Z,97374.31
2022-11-24T02:36:27.210Z,97376.03
2022-11-24T02:39:28.889Z,97379.53
2022-11-24T02:42:34.681Z,97381.34
2022-11-24T02:45:36.236Z,97383.13
2022-11-24T02:48:37.991Z,97381.34
2022-11-24T02:51:39.553Z,97379.53
2022-11-24T02:54:41.442Z,97385.63
2022-11-24T02:57:44.265Z,97387.28
2022-11-24T03:00:45.698Z,97386.44
2022-11-24T03:03:47.448Z,97391.72
2022-11-24T03:06:49.035Z,97399.78
2022-11-24T03:09:50.505Z,97391.84
2022-11-24T03:12:54.114Z,97399.88
2022-11-24T03:15:55.741Z,97402.69
2022-11-24T03:18:57.456Z,97406.38
2022-11-24T03:21:59.277Z,97404.72
2022-11-24T03:25:01.133Z,97408.22
2022-11-24T03:28:04.235Z,97410.94
2022-11-24T03:31:06.090Z,97403.94
2022-11-24T03:34:07.943Z,97412.81
2022-11-24T03:37:09.427Z,97425.28
2022-11-24T03:40:11.373Z,97428.19
2022-11-24T03:43:14.350Z,97425.72
2022-11-24T03:46:16.079Z,97424.94
2022-11-24T03:49:17.896Z,97438.16
2022-11-24T03:52:19.317Z,97424.63
2022-11-24T03:55:20.907Z,97425.47
2022-11-24T03:58:23.936Z,97441.16
2022-11-24T04:01:25.505Z,97439.31
2022-11-24T04:04:26.971Z,97434.78
2022-11-24T04:07:28.592Z,97440.88
2022-11-24T04:10:30.342Z,97445.25
2022-11-24T04:13:33.473Z,97452.47
2022-11-24T04:16:38.045Z,97448.19
2022-11-24T04:19:39.649Z,97446.63
2022-11-24T04:22:41.583Z,97456.53
2022-11-24T04:25:43.793Z,97469.00
2022-11-24T04:28:46.796Z,97470.09
2022-11-24T04:31:48.352Z,97473.63
2022-11-24T04:34:50.100Z,97463.91
2022-11-24T04:37:51.773Z,97466.34
2022-11-24T04:40:53.239Z,97470.56
2022-11-24T04:43:56.125Z,97469.59
2022-11-24T04:46:57.727Z,97487.13
2022-11-24T04:49:59.337Z,97474.81
2022-11-24T04:53:00.967Z,97489.84
2022-11-24T04:56:04.185Z,97481.91
2022-11-24T04:59:08.625Z,97487.97
2022-11-24T05:02:10.527Z,97492.53
2022-11-24T05:05:12.102Z,97489.97
2022-11-24T05:08:13.718Z,97505.06
2022-11-24T05:11:15.728Z,97500.78
2022-11-24T05:14:18.625Z,97513.16
2022-11-24T05:17:20.098Z,97515.09
2022-11-24T05:20:21.604Z,97520.25
2022-11-24T05:23:23.296Z,97525.47
2022-11-24T05:26:28.095Z,97523.69
2022-11-24T05:29:31.232Z,97525.38
2022-11-24T05:32:32.743Z,97523.69
2022-11-24T05:35:35.058Z,97522.75
2022-11-24T05:38:36.582Z,97522.75
2022-11-24T05:41:38.067Z,97516.66
2022-11-24T05:44:41.442Z,97528.25
2022-11-24T05:47:43.025Z,97532.81
2022-11-24T05:50:44.579Z,97531.84
2022-11-24T05:53:46.162Z,97535.47
2022-11-24T05:56:47.776Z,97537.31
2022-11-24T05:59:50.661Z,97535.59
2022-11-24T06:02:52.347Z,97541.84
2022-11-24T06:05:53.956Z,97545.19
2022-11-24T06:08:55.654Z,97549.63
2022-11-24T06:11:57.339Z,97550.41
2022-11-24T06:15:00.410Z,97552.03
2022-11-24T06:18:02.058Z,97553.03
2022-11-24T06:21:10.916Z,97557.31
2022-11-24T06:24:14.735Z,97565.25
2022-11-24T06:27:16.359Z,97567.13
2022-11-24T06:30:19.339Z,97570.41
2022-11-24T06:33:20.846Z,97573.84
2022-11-24T06:36:22.653Z,97577.50
2022-11-24T06:39:24.194Z,97578.28
2022-11-24T06:42:25.776Z,97577.41
2022-11-24T06:45:28.833Z,97578.28
2022-11-24T06:48:30.815Z,97583.56
2022-11-24T06:51:32.414Z,97587.16
2022-11-24T06:54:34.452Z,97597.66
2022-11-24T06:57:36.338Z,97605.50
2022-11-24T07:00:39.346Z,97606.06
2022-11-24T07:03:40.933Z,97611.22
2022-11-24T07:06:42.842Z,97619.06
2022-11-24T07:09:44.335Z,97621.69
2022-11-24T07:12:45.899Z,97630.50
2022-11-24T07:15:48.798Z,97631.44
2022-11-24T07:18:51.679Z,97624.44
2022-11-24T07:21:53.127Z,97625.16
2022-11-24T07:24:54.686Z,97640.06
2022-11-24T07:27:56.835Z,97638.34
2022-11-24T07:31:00.069Z,97649.91
2022-11-24T07:34:03.068Z,97646.47
2022-11-24T07:37:06.352Z,97649.03
2022-11-24T07:40:08.499Z,97656.09
2022-11-24T07:43:10.013Z,97664.03
2022-11-24T07:46:13.909Z,97660.47
2022-11-24T07:49:15.536Z,97664.94
2022-11-24T07:52:17.135Z,97658.91
2022-11-24T07:55:18.593Z,97663.47
2022-11-24T07:58:20.539Z,97663.53
2022-11-24T08:01:23.393Z,97675.94
2022-11-24T08:04:25.060Z,97677.78
2022-11-24T08:07:26.697Z,97677.78
2022-11-24T08:10:28.232Z,97680.44
2022-11-24T08:13:29.908Z,97683.88
2022-11-24T08:16:32.908Z,97684.75
2022-11-24T08:19:34.963Z,97691.69
2022-11-24T08:22:36.608Z,97689.81
2022-11-24T08:25:38.070Z,97687.91
2022-11-24T08:28:39.565Z,97686.94
2022-11-24T08:31:42.458Z,97700.97
2022-11-24T08:34:44.095Z,97708.94
2022-11-24T08:37:45.792Z,97712.56
2022-11-24T08:40:47.398Z,97721.44
2022-11-24T08:43:49.004Z,97724.03
2022-11-24T08:46:53.577Z,97725.53
2022-11-24T08:49:55.155Z,97725.28
2022-11-24T08:52:56.626Z,97727.88
2022-11-24T08:55:59.385Z,97740.97
2022-11-24T08:59:01.088Z,97744.50
2022-11-24T09:02:04.060Z,97745.38
2022-11-24T09:05:22.540Z,97741.78
2022-11-24T09:08:29.102Z,97750.47
2022-11-24T09:11:30.939Z,97744.09
2022-11-24T09:14:32.869Z,97751.00
2022-11-24T09:17:36.771Z,97757.00
2022-11-24T09:20:38.890Z,97764.81
2022-11-24T09:23:40.761Z,97764.75
2022-11-24T09:26:47.330Z,97774.38
2022-11-24T09:29:49.358Z,97775.16
2022-11-24T09:32:52.235Z,97772.38
2022-11-24T09:35:53.727Z,97773.91
2022-11-24T09:38:55.594Z,97774.75
2022-11-24T09:42:04.895Z,97775.63
2022-11-24T09:45:30.340Z,97773.63
2022-11-24T09:48:44.250Z,97770.78
2022-11-24T09:51:49.243Z,97778.59
2022-11-24T09:54:53.647Z,97779.22
2022-11-24T09:57:59.129Z,97788.94
2022-11-24T10:01:00.726Z,97782.63
2022-11-24T10:04:06.734Z,97785.97
2022-11-24T10:07:15.597Z,97784.88
2022-11-24T10:10:24.257Z,97784.91
2022-11-24T10:13:34.953Z,97790.22
2022-11-24T10:16:43.906Z,97791.97
2022-11-24T10:19:48.650Z,97795.09
2022-11-24T10:22:56.836Z,97803.66
2022-11-24T10:25:59.131Z,97807.00
2022-11-24T10:29:02.783Z,97800.69
2022-11-24T10:32:06.995Z,97803.44
2022-11-24T10:35:14.508Z,97818.38
2022-11-24T10:38:20.188Z,97812.84
2022-11-24T10:41:24.057Z,97812.50
2022-11-24T10:44:25.989Z,97810.56
2022-11-24T10:47:27.683Z,97814.84
2022-11-24T10:50:32.944Z,97819.19
2022-11-24T10:53:35.602Z,97817.16
2022-11-24T10:56:40.714Z,97818.94
2022-11-24T10:59:42.247Z,97823.41
2022-11-24T11:02:44.102Z,97823.31
2022-11-24T11:05:50.855Z,97821.69
2022-11-24T11:09:11.341Z,97822.63
2022-11-24T11:12:42.781Z,97822.63
2022-11-24T11:15:41.721Z,97824.97
2022-11-24T11:18:46.975Z,97824.84
2022-11-24T11:21:58.540Z,97828.19
2022-11-24T11:25:05.754Z,97840.47
2022-11-24T11:28:26.687Z,97833.50
2022-11-24T11:31:28.952Z,97834.38
2022-11-24T11:34:34.751Z,97844.34
2022-11-24T11:37:37.699Z,97847.91
2022-11-24T11:40:42.819Z,97839.19
2022-11-24T11:43:45.976Z,97853.31
2022-11-24T11:46:47.518Z,97854.16
2022-11-24T11:49:49.829Z,97856.63
2022-11-24T11:52:59.707Z,97865.44
2022-11-24T11:56:09.652Z,97874.34
2022-11-24T11:59:18.308Z,97870.03
2022-11-24T12:02:33.456Z,97878.91
2022-11-24T12:05:41.930Z,97875.47
2022-11-24T12:09:18.636Z,97879.84
2022-11-24T12:12:21.367Z,97884.22
2022-11-24T12:15:27.052Z,97886.75
2022-11-24T12:22:01.036Z,97896.44
2022-11-24T12:25:13.058Z,97899.09
2022-11-24T12:28:20.814Z,97903.41
2022-11-24T12:31:27.298Z,97901.69
2022-11-24T12:34:36.671Z,97907.06
2022-11-24T12:37:50.751Z,97908.03
2022-11-24T12:41:39.754Z,97918.81
2022-11-24T12:44:44.223Z,97912.63
2022-11-24T12:47:54.255Z,97909.19
2022-11-24T12:50:57.767Z,97909.34
2022-11-24T12:54:02.449Z,97916.63
2022-11-24T12:57:08.862Z,97918.50
2022-11-24T13:00:16.669Z,97922.09
2022-11-24T13:03:25.649Z,97922.16
2022-11-24T13:06:29.334Z,97923.81
2022-11-24T13:09:30.965Z,97925.69
2022-11-24T13:12:33.946Z,97937.34
2022-11-24T13:15:57.085Z,97939.28
2022-11-24T13:19:10.415Z,97940.47
2022-11-24T13:22:16.943Z,97937.88
2022-11-24T13:25:20.377Z,97936.09
2022-11-24T13:29:00.359Z,97948.44
2022-11-24T13:32:22.771Z,97950.91
2022-11-24T13:35:24.467Z,97959.66
2022-11-24T13:38:39.540Z,97952.38
2022-11-24T13:41:56.010Z,97954.09
2022-11-24T13:44:58.033Z,97960.38
2022-11-24T13:48:00.987Z,97957.84
2022-11-24T13:51:14.478Z,97953.47
2022-11-24T13:54:16.070Z,97962.53
2022-11-24T13:57:34.393Z,97974.00
2022-11-24T14:00:37.394Z,97983.59
2022-11-24T14:03:55.310Z,97987.13
2022-11-24T14:07:02.649Z,97984.41
2022-11-24T14:10:13.789Z,97994.06
2022-11-24T14:13:25.398Z,97987.97
2022-11-24T14:16:27.933Z,97987.19
2022-11-24T14:19:32.353Z,97986.44
2022-11-24T14:22:36.404Z,97996.16
2022-11-24T14:25:38.275Z,97989.06
2022-11-24T14:28:41.123Z,97987.19
2022-11-24T14:31:43.511Z,97987.13
2022-11-24T14:34:46.524Z,98003.81
2022-11-24T14:37:47.984Z,97995.94
2022-11-24T14:40:50.628Z,98004.84
2022-11-24T14:44:05.070Z,98007.66
2022-11-24T14:47:13.328Z,98006.94
2022-11-24T14:50:18.432Z,98009.66
2022-11-24T14:53:26.011Z,98011.38
2022-11-24T14:56:29.015Z,98007.88
2022-11-24T14:59:31.887Z,98008.59
2022-11-24T15:02:41.466Z,98017.25
2022-11-24T15:05:55.172Z,98013.72
2022-11-24T15:08:56.775Z,98017.38
2022-11-24T15:12:04.377Z,98033.31
2022-11-24T15:15:16.047Z,98033.22
2022-11-24T15:18:24.039Z,98038.66
2022-11-24T15:21:34.099Z,98041.31
2022-11-24T15:24:48.526Z,98039.47
2022-11-24T15:27:50.263Z,98041.97
2022-11-24T15:30:52.750Z,98045.50
2022-11-24T15:33:54.233Z,98043.72
2022-11-24T15:36:57.133Z,98038.66
2022-11-24T15:39:58.951Z,98038.84
2022-11-24T15:43:05.048Z,98044.28
2022-11-24T15:46:08.834Z,98038.50
2022-11-24T15:49:10.292Z,98048.41
2022-11-24T15:52:17.657Z,98039.53
2022-11-24T15:55:20.402Z,98046.78
2022-11-24T15:58:21.900Z,98053.00
2022-11-24T16:01:24.772Z,98056.66
2022-11-24T16:04:26.411Z,98056.78
2022-11-24T16:07:29.385Z,98064.75
2022-11-24T16:10:35.901Z,98069.91
2022-11-24T16:13:37.487Z,98069.91
2022-11-24T16:16:40.923Z,98084.84
2022-11-24T16:19:42.556Z,98077.75
2022-11-24T16:22:45.420Z,98075.03
2022-11-24T16:25:46.901Z,98090.84
2022-11-24T16:28:48.617Z,98085.47
2022-11-24T16:31:51.456Z,98084.59
2022-11-24T16:34:53.070Z,98085.56
2022-11-24T16:37:55.870Z,98087.28
2022-11-24T16:40:57.331Z,98090.88
2022-11-24T16:43:58.809Z,98096.25
2022-11-24T16:47:00.224Z,98089.22
2022-11-24T16:50:01.745Z,98091.88
2022-11-24T16:53:04.639Z,98093.66
2022-11-24T16:56:06.721Z,98096.16
2022-11-24T16:59:08.292Z,98097.00
2022-11-24T17:02:11.401Z,98106.75
2022-11-24T17:05:14.804Z,98101.75
2022-11-24T17:08:18.341Z,98100.38
2022-11-24T17:11:21.102Z,98102.41
2022-11-24T17:14:22.677Z,98099.16
2022-11-24T17:17:24.291Z,98103.88
2022-11-24T17:20:26.140Z,98113.09
2022-11-24T17:23:29.148Z,98101.13
2022-11-24T17:26:30.727Z,98110.28
2022-11-24T17:29:32.252Z,98106.09
2022-11-24T17:32:33.868Z,98109.88
2022-11-24T17:35:35.359Z,98109.97
2022-11-24T17:38:38.265Z,98114.31
2022-11-24T17:41:39.802Z,98109.88
2022-11-24T17:44:41.277Z,98112.47
2022-11-24T17:47:42.738Z,98111.72
2022-11-24T17:50:44.226Z,98115.38
2022-11-24T17:53:49.306Z,98112.75
2022-11-24T17:56:50.881Z,98115.59
2022-11-24T17:59:53.167Z,98118.34
2022-11-24T18:02:56.628Z,98122.78
2022-11-24T18:05:58.586Z,98120.16
2022-11-24T18:09:01.621Z,98129.16
2022-11-24T18:12:03.184Z,98126.63
2022-11-24T18:15:05.201Z,98117.03
2022-11-24T18:18:06.860Z,98125.22
2022-11-24T18:21:13.860Z,98132.03
2022-11-24T18:24:21.143Z,98135.44
2022-11-24T18:27:25.548Z,98140.72
2022-11-24T18:30:27.079Z,98135.59
2022-11-24T18:33:28.732Z,98136.78
2022-11-24T18:36:30.964Z,98134.28
2022-11-24T18:39:33.999Z,98132.78
2022-11-24T18:42:35.550Z,98131.25
2022-11-24T18:45:38.239Z,98134.06
2022-11-24T18:48:39.748Z,98136.81
2022-11-24T18:51:41.178Z,98137.47
2022-11-24T18:54:44.156Z,98130.16
2022-11-24T18:57:45.727Z,98134.53
2022-11-24T19:00:47.244Z,98137.91
2022-11-24T19:03:49.750Z,98140.50
2022-11-24T19:06:51.539Z,98132.56
2022-11-24T19:09:54.750Z,98141.31
2022-11-24T19:12:56.412Z,98144.06
2022-11-24T19:16:00.310Z,98136.19
2022-11-24T19:19:02.997Z,98139.81
2022-11-24T19:22:04.550Z,98145.41
2022-11-24T19:25:08.377Z,98140.25
2022-11-24T19:28:12.522Z,98144.41
2022-11-24T19:31:14.858Z,98140.25
2022-11-24T19:34:16.486Z,98138.69
2022-11-24T19:37:18.052Z,98143.81
2022-11-24T19:40:21.151Z,98143.84
2022-11-24T19:43:22.686Z,98147.31
2022-11-24T19:46:27.240Z,98139.44
2022-11-24T19:49:28.898Z,98149.03
2022-11-24T19:52:30.343Z,98152.53
2022-11-24T19:55:33.545Z,98153.34
2022-11-24T19:58:35.494Z,98150.72
2022-11-24T20:01:38.910Z,98151.63
2022-11-24T20:04:42.893Z,98155.28
2022-11-24T20:07:44.639Z,98159.66
2022-11-24T20:10:47.487Z,98165.59
2022-11-24T20:13:49.928Z,98164.50
2022-11-24T20:16:51.830Z,98172.25
2022-11-24T20:19:53.581Z,98166.16
2022-11-24T20:22:55.122Z,98175.00
2022-11-24T20:26:01.873Z,98172.38
2022-11-24T20:29:04.197Z,98183.94
2022-11-24T20:32:06.065Z,98177.94
2022-11-24T20:35:07.887Z,98175.44
2022-11-24T20:38:11.822Z,98179.00
2022-11-24T20:41:15.703Z,98180.66
2022-11-24T20:44:18.428Z,98185.22
2022-11-24T20:47:19.901Z,98181.81
2022-11-24T20:50:21.635Z,98181.94
2022-11-24T20:53:23.622Z,98184.75
2022-11-24T20:56:28.228Z,98181.22
2022-11-24T20:59:29.841Z,98184.78
2022-11-24T21:02:31.507Z,98184.06
2022-11-24T21:05:32.996Z,98182.34
2022-11-24T21:08:35.068Z,98184.41
2022-11-24T21:11:39.304Z,98192.59
2022-11-24T21:14:41.027Z,98183.09
2022-11-24T21:17:42.864Z,98178.63
2022-11-24T21:20:44.658Z,98184.59
2022-11-24T21:23:46.530Z,98178.53
2022-11-24T21:26:51.817Z,98180.50
2022-11-24T21:29:53.491Z,98185.03
2022-11-24T21:32:55.128Z,98189.41
2022-11-24T21:36:00.697Z,98200.22
2022-11-24T21:39:03.136Z,98192.50
2022-11-24T21:42:06.747Z,98189.91
2022-11-24T21:45:11.800Z,98192.44
2022-11-24T21:48:13.391Z,98196.88
2022-11-24T21:51:15.791Z,98196.97
2022-11-24T21:54:17.270Z,98202.16
2022-11-24T21:57:20.834Z,98191.47
2022-11-24T22:00:22.564Z,98188.88
2022-11-24T22:03:24.024Z,98186.19
2022-11-24T22:06:25.564Z,98183.47
2022-11-24T22:09:27.275Z,98188.66
2022-11-24T22:12:30.162Z,98183.28
2022-11-24T22:15:31.711Z,98183.28
2022-11-24T22:18:33.815Z,98195.09
2022-11-24T22:21:35.310Z,98193.59
2022-11-24T22:24:37.039Z,98185.94
2022-11-24T22:27:40.393Z,98191.34
2022-11-24T22:30:41.878Z,98191.50
2022-11-24T22:33:46.389Z,98189.00
2022-11-24T22:36:47.897Z,98188.28
2022-11-24T22:39:49.552Z,98198.97
2022-11-24T22:42:52.445Z,98188.63
2022-11-24T22:45:53.973Z,98201.09
2022-11-24T22:48:57.713Z,98191.47
2022-11-24T22:51:59.293Z,98190.63
2022-11-24T22:55:00.786Z,98193.34
2022-11-24T22:58:03.755Z,98184.63
2022-11-24T23:01:06.208Z,98183.94
2022-11-24T23:04:07.916Z,98187.59
2022-11-24T23:07:09.785Z,98192.16
2022-11-24T23:10:11.794Z,98192.19
2022-11-24T23:13:14.954Z,98184.34
2022-11-24T23:16:17.423Z,98186.97
2022-11-24T23:19:19.126Z,98182.69
2022-11-24T23:22:20.565Z,98191.66
2022-11-24T23:25:22.287Z,98189.94
2022-11-24T23:28:25.293Z,98183.75
2022-11-24T23:31:28.745Z,98181.97
2022-11-24T23:34:30.549Z,98176.84
2022-11-24T23:37:52.301Z,98188.16
2022-11-24T23:40:55.111Z,98180.91
2022-11-24T23:43:58.124Z,98179.25
2022-11-24T23:46:59.754Z,98182.69
2022-11-24T23:50:01.498Z,98178.31
2022-11-24T23:53:03.032Z,98175.72
2022-11-24T23:56:05.242Z,98177.41
2022-11-24T23:59:10.394Z,98170.31
